Time;durP1;ratioP1;P1;durP2;ratioP2;P2;SDS_P1;SDS_P2;PMS_P1;PMS_P2;Temp;Humidity;BMP_temperature;BMP_pressure;BME280_temperature;BME280_humidity;BME280_pressure;Samples;Min_cycle;Max_cycle;Signal;HPM_P1;HPM_P2
2023/02/22 00:00:44;;;;;;;0.35;0.35;;;;;;;10.90;100.00;100957.16;5016658;28;20062;-50
2023/02/22 00:03:14;;;;;;;0.57;0.28;;;;;;;10.92;100.00;100951.44;5018633;28;20041;-52
2023/02/22 00:05:45;;;;;;;0.68;0.32;;;;;;;10.87;100.00;100945.16;5010568;28;20045;-49
2023/02/22 00:08:15;;;;;;;0.35;0.20;;;;;;;10.89;100.00;100955.59;5011574;28;20041;-52
2023/02/22 00:10:42;;;;;;;0.65;0.28;;;;;;;10.89;100.00;100942.91;5013384;28;20385;-52
2023/02/22 00:13:10;;;;;;;0.22;0.22;;;;;;;10.92;100.00;100941.41;5020826;28;20025;-54
2023/02/22 00:15:35;;;;;;;1.30;0.47;;;;;;;11.03;100.00;100947.84;5020526;28;20092;-49
2023/02/22 00:18:03;;;;;;;0.13;0.13;;;;;;;11.05;100.00;100944.78;5021823;28;20034;-51
2023/02/22 00:20:29;;;;;;;0.15;0.15;;;;;;;11.00;100.00;100942.34;5016193;28;20392;-50
2023/02/22 00:22:54;;;;;;;0.68;0.65;;;;;;;11.03;100.00;100942.47;5009722;28;20037;-53
2023/02/22 00:25:22;;;;;;;0.55;0.40;;;;;;;10.98;100.00;100936.53;5012655;28;20030;-54
2023/02/22 00:27:52;;;;;;;0.38;0.30;;;;;;;10.77;100.00;100937.63;5015312;28;20432;-53
2023/02/22 00:30:22;;;;;;;0.20;0.20;;;;;;;10.88;100.00;100935.94;5023699;28;20025;-49
2023/02/22 00:32:48;;;;;;;0.43;0.22;;;;;;;11.01;100.00;100935.84;5025718;28;20120;-51
2023/02/22 00:35:16;;;;;;;0.57;0.40;;;;;;;10.97;100.00;100934.97;5023615;28;20030;-50
2023/02/22 00:37:42;;;;;;;0.50;0.47;;;;;;;10.89;100.00;100932.13;5012637;28;20042;-51
2023/02/22 00:40:14;;;;;;;0.38;0.38;;;;;;;10.92;100.00;100932.56;5017097;28;20160;-52
2023/02/22 00:42:40;;;;;;;0.17;0.17;;;;;;;10.85;100.00;100925.09;5031556;28;20056;-53
2023/02/22 00:45:06;;;;;;;0.52;0.52;;;;;;;10.87;100.00;100937.09;5014997;28;20058;-54
2023/02/22 00:47:34;;;;;;;0.35;0.35;;;;;;;10.90;100.00;100932.91;5010208;28;20026;-52
2023/02/22 00:49:59;;;;;;;0.30;0.30;;;;;;;10.90;100.00;100939.06;5014251;28;20036;-52
2023/02/22 00:52:26;;;;;;;0.55;0.45;;;;;;;10.96;100.00;100936.09;5013022;28;20038;-55
2023/02/22 00:54:53;;;;;;;0.30;0.30;;;;;;;10.95;100.00;100940.72;5010671;28;20053;-56
2023/02/22 00:57:19;;;;;;;0.20;0.20;;;;;;;10.81;100.00;100938.47;5019323;28;20034;-51
2023/02/22 00:59:44;;;;;;;0.20;0.20;;;;;;;10.81;100.00;100929.63;5015381;28;20053;-56
2023/02/22 01:02:10;;;;;;;0.45;0.45;;;;;;;10.93;100.00;100942.19;5037927;28;20061;-54
2023/02/22 01:04:35;;;;;;;1.00;0.82;;;;;;;11.03;100.00;100936.28;5014278;28;20255;-52
2023/02/22 01:07:01;;;;;;;0.52;0.40;;;;;;;11.02;100.00;100930.09;5021260;28;20067;-55
2023/02/22 01:09:26;;;;;;;0.20;0.20;;;;;;;10.90;100.00;100928.28;5020226;28;20076;-58
2023/02/22 01:11:56;;;;;;;0.45;0.45;;;;;;;10.57;100.00;100925.19;5011933;28;20056;-54
2023/02/22 01:14:26;;;;;;;0.15;0.15;;;;;;;10.61;100.00;100928.75;5032332;28;20121;-55
2023/02/22 01:16:53;;;;;;;0.30;0.30;;;;;;;10.78;100.00;100925.69;5017369;28;20060;-55
2023/02/22 01:19:20;;;;;;;0.30;0.30;;;;;;;10.84;100.00;100927.00;5009114;28;20038;-53
2023/02/22 01:21:47;;;;;;;0.47;0.47;;;;;;;10.95;100.00;100919.16;5009952;28;20026;-57
2023/02/22 01:24:15;;;;;;;1.02;0.47;;;;;;;10.82;100.00;100931.94;5009219;28;20589;-55
2023/02/22 01:26:48;;;;;;;0.32;0.20;;;;;;;10.81;100.00;100932.31;5009264;28;20048;-57
2023/02/22 01:29:15;;;;;;;0.68;0.52;;;;;;;10.81;100.00;100929.63;5009820;28;20121;-53
2023/02/22 01:31:44;;;;;;;0.20;0.20;;;;;;;10.77;100.00;100921.44;5018440;28;20029;-53
2023/02/22 01:34:11;;;;;;;0.35;0.35;;;;;;;10.77;100.00;100928.75;5023477;28;20033;-55
2023/02/22 01:36:38;;;;;;;0.20;0.20;;;;;;;10.80;100.00;100920.75;4990935;28;20555;-55
2023/02/22 01:39:04;;;;;;;0.40;0.40;;;;;;;10.92;100.00;100925.25;5010664;28;20053;-52
2023/02/22 01:41:30;;;;;;;0.93;0.35;;;;;;;10.90;100.00;100927.50;5028321;28;20064;-51
2023/02/22 01:43:57;;;;;;;1.23;1.23;;;;;;;10.89;100.00;100915.97;5016891;28;20021;-50
2023/02/22 01:46:26;;;;;;;1.67;0.52;;;;;;;10.85;100.00;100925.88;5007093;28;20037;-53
2023/02/22 01:48:58;;;;;;;0.10;0.10;;;;;;;10.86;100.00;100915.88;5009993;28;20060;-50
2023/02/22 01:51:38;;;;;;;0.43;0.43;;;;;;;10.87;100.00;100918.22;5011987;28;20038;-51
2023/02/22 01:54:12;;;;;;;0.28;0.28;;;;;;;10.89;100.00;100915.97;5017339;28;20061;-53
2023/02/22 01:56:45;;;;;;;0.10;0.10;;;;;;;10.91;100.00;100907.53;5015073;28;20029;-56
2023/02/22 01:59:12;;;;;;;1.65;0.63;;;;;;;10.95;100.00;100907.59;5021255;28;20128;-52
2023/02/22 02:01:43;;;;;;;0.30;0.15;;;;;;;10.89;100.00;100907.09;5013099;28;20109;-52
2023/02/22 02:04:14;;;;;;;0.32;0.30;;;;;;;10.85;100.00;100901.63;5032110;28;20551;-51
2023/02/22 02:06:41;;;;;;;1.27;0.25;;;;;;;10.89;100.00;100907.88;5019333;28;20033;-53
2023/02/22 02:09:30;;;;;;;0.03;0.03;;;;;;;10.94;100.00;100898.72;5024418;28;20117;-49
2023/02/22 02:12:03;;;;;;;0.22;0.22;;;;;;;10.93;100.00;100899.09;5015567;28;20726;-52
2023/02/22 02:14:33;;;;;;;0.20;0.20;;;;;;;10.89;100.00;100897.09;5014898;28;20033;-53
2023/02/22 02:17:02;;;;;;;0.20;0.20;;;;;;;10.81;100.00;100898.06;5015105;28;20021;-51
2023/02/22 02:19:47;;;;;;;0.13;0.13;;;;;;;10.86;100.00;100892.41;5020305;28;20126;-52
2023/02/22 02:22:24;;;;;;;0.50;0.20;;;;;;;10.89;100.00;100893.63;5022596;28;20042;-50
2023/02/22 02:25:21;;;;;;;2.30;0.70;;;;;;;10.96;100.00;100890.28;5012293;28;20030;-53
2023/02/22 02:27:54;;;;;;;1.27;1.17;;;;;;;10.93;100.00;100889.09;5017253;28;20132;-52
2023/02/22 02:30:35;;;;;;;0.25;0.25;;;;;;;10.92;100.00;100884.06;5025988;28;20029;-55
2023/02/22 02:33:16;;;;;;;0.50;0.50;;;;;;;10.92;100.00;100897.53;5035782;28;20072;-55
2023/02/22 02:35:54;;;;;;;0.30;0.30;;;;;;;10.83;100.00;100885.03;5017301;28;20053;-54
2023/02/22 02:38:38;;;;;;;0.10;0.10;;;;;;;10.96;100.00;100890.28;5014583;28;20097;-52
2023/02/22 02:41:14;;;;;;;0.28;0.28;;;;;;;10.95;100.00;100886.06;5026608;28;20068;-50
2023/02/22 02:43:50;;;;;;;0.47;0.47;;;;;;;10.96;100.00;100882.22;5043144;28;20543;-54
2023/02/22 02:46:37;;;;;;;0.80;0.40;;;;;;;10.96;100.00;100883.00;5021041;28;20414;-51
2023/02/22 02:49:10;;;;;;;0.15;0.15;;;;;;;10.82;100.00;100874.59;5022606;28;20091;-51
2023/02/22 02:51:40;;;;;;;0.38;0.38;;;;;;;10.89;100.00;100878.25;5030460;28;20025;-54
2023/02/22 02:54:07;;;;;;;0.10;0.10;;;;;;;10.88;100.00;100876.66;5030281;28;20034;-53
2023/02/22 02:56:33;;;;;;;0.28;0.28;;;;;;;10.88;100.00;100868.59;5029536;28;20683;-52
2023/02/22 02:58:59;;;;;;;0.43;0.43;;;;;;;10.94;100.00;100865.63;5014315;28;20033;-52
2023/02/22 03:01:42;;;;;;;0.25;0.25;;;;;;;10.89;100.00;100864.78;5023994;28;20033;-50
2023/02/22 03:04:26;;;;;;;0.63;0.63;;;;;;;10.90;100.00;100860.94;5032985;28;20038;-52
2023/02/22 03:07:14;;;;;;;0.30;0.30;;;;;;;10.59;100.00;100861.00;5032862;28;20113;-53
2023/02/22 03:10:01;;;;;;;1.20;0.57;;;;;;;10.64;100.00;100859.94;5020780;28;20119;-53
2023/02/22 03:12:45;;;;;;;10.02;0.93;;;;;;;10.71;100.00;100852.81;5026715;28;20052;-53
2023/02/22 03:15:31;;;;;;;0.63;0.32;;;;;;;10.75;100.00;100850.97;5021254;28;20049;-47
2023/02/22 03:18:07;;;;;;;0.10;0.10;;;;;;;10.79;100.00;100853.75;5023788;28;20037;-50
2023/02/22 03:20:49;;;;;;;1.77;0.57;;;;;;;10.82;100.00;100850.34;5010664;28;20496;-55
2023/02/22 03:23:23;;;;;;;1.50;0.80;;;;;;;10.81;100.00;100848.78;5012391;28;20118;-56
2023/02/22 03:25:54;;;;;;;0.47;0.45;;;;;;;10.86;100.00;100843.91;5016155;28;20088;-56
2023/02/22 03:28:25;;;;;;;0.10;0.10;;;;;;;10.81;100.00;100838.81;5027494;28;20030;-57
2023/02/22 03:30:57;;;;;;;0.68;0.40;;;;;;;10.81;100.00;100844.19;5010919;28;20069;-53
2023/02/22 03:33:32;;;;;;;6.28;0.40;;;;;;;10.84;100.00;100840.78;5014448;28;20033;-55
2023/02/22 03:36:06;;;;;;;0.32;0.30;;;;;;;10.89;100.00;100845.91;5023777;28;20079;-53
2023/02/22 03:38:33;;;;;;;0.38;0.38;;;;;;;10.84;100.00;100846.19;5016859;28;20034;-56
2023/02/22 03:41:01;;;;;;;0.17;0.17;;;;;;;10.81;100.00;100838.03;5026708;28;20871;-56
2023/02/22 03:43:44;;;;;;;0.32;0.32;;;;;;;10.72;100.00;100835.50;5027469;28;20453;-53
2023/02/22 03:46:14;;;;;;;0.30;0.30;;;;;;;10.70;100.00;100837.00;5030482;28;21151;-52
2023/02/22 03:48:50;;;;;;;0.35;0.35;;;;;;;10.77;100.00;100837.94;5021531;28;20080;-57
2023/02/22 03:51:17;;;;;;;0.40;0.40;;;;;;;10.75;100.00;100842.13;5019792;28;20120;-52
2023/02/22 03:53:44;;;;;;;0.68;0.43;;;;;;;10.75;100.00;100839.41;5031682;28;20564;-55
2023/02/22 03:56:18;;;;;;;0.38;0.38;;;;;;;10.68;100.00;100836.56;5028148;28;20063;-57
2023/02/22 03:58:49;;;;;;;0.10;0.10;;;;;;;10.70;100.00;100832.38;5012737;28;20065;-53
2023/02/22 04:01:16;;;;;;;0.20;0.10;;;;;;;10.72;100.00;100840.88;5019248;28;20548;-56
2023/02/22 04:03:42;;;;;;;0.22;0.22;;;;;;;10.68;100.00;100840.03;5022243;28;20121;-56
2023/02/22 04:06:08;;;;;;;0.10;0.10;;;;;;;10.64;100.00;100841.09;5008080;28;20054;-51
2023/02/22 04:08:34;;;;;;;0.30;0.30;;;;;;;10.72;100.00;100840.13;5024060;28;20060;-55
2023/02/22 04:11:01;;;;;;;0.20;0.20;;;;;;;10.74;100.00;100840.56;5007090;28;20036;-53
2023/02/22 04:13:28;;;;;;;0.75;0.40;;;;;;;10.76;100.00;100839.06;5025971;28;20038;-54
2023/02/22 04:15:54;;;;;;;0.40;0.40;;;;;;;10.76;100.00;100847.16;5014623;28;20184;-57
2023/02/22 04:18:19;;;;;;;0.70;0.50;;;;;;;10.66;100.00;100844.22;5015554;28;20484;-54
2023/02/22 04:20:46;;;;;;;0.22;0.22;;;;;;;10.72;100.00;100838.19;5014129;28;20128;-57
2023/02/22 04:23:21;;;;;;;0.20;0.20;;;;;;;10.78;100.00;100844.13;5030263;28;20026;-54
2023/02/22 04:25:47;;;;;;;0.43;0.30;;;;;;;10.79;100.00;100851.84;5030022;28;20036;-55
2023/02/22 04:28:15;;;;;;;0.20;0.20;;;;;;;10.84;100.00;100851.56;5016690;28;20026;-54
2023/02/22 04:30:49;;;;;;;0.38;0.38;;;;;;;10.83;100.00;100851.91;5032663;28;20053;-54
2023/02/22 04:33:17;;;;;;;1.95;0.45;;;;;;;10.66;100.00;100850.41;5014229;28;20037;-54
2023/02/22 04:35:42;;;;;;;0.30;0.30;;;;;;;10.78;100.00;100852.97;5015350;28;20541;-51
2023/02/22 04:38:10;;;;;;;1.10;0.28;;;;;;;10.82;100.00;100836.88;5019121;28;20026;-55
2023/02/22 04:40:38;;;;;;;0.23;0.13;;;;;;;10.87;100.00;100847.41;5012060;28;20678;-57
2023/02/22 04:43:05;;;;;;;0.35;0.35;;;;;;;10.85;100.00;100849.66;5031626;28;20323;-55
2023/02/22 04:45:31;;;;;;;0.20;0.20;;;;;;;10.79;100.00;100833.00;5007662;28;20065;-53
2023/02/22 04:47:56;;;;;;;0.10;0.10;;;;;;;10.84;100.00;100846.19;5017217;28;20041;-56
2023/02/22 04:50:22;;;;;;;0.40;0.40;;;;;;;10.82;100.00;100845.75;5021629;28;20030;-54
2023/02/22 04:52:48;;;;;;;0.22;0.22;;;;;;;10.66;100.00;100834.25;5023125;28;20096;-56
2023/02/22 04:55:15;;;;;;;0.70;0.60;;;;;;;10.72;100.00;100832.06;5021819;28;20518;-53
2023/02/22 04:57:42;;;;;;;0.73;0.55;;;;;;;10.73;100.00;100837.09;5008282;28;20032;-51
2023/02/22 05:00:09;;;;;;;1.00;0.70;;;;;;;10.79;100.00;100838.38;5005998;28;20481;-55
2023/02/22 05:02:39;;;;;;;0.32;0.30;;;;;;;10.86;100.00;100829.66;5006916;28;20068;-55
2023/02/22 05:05:05;;;;;;;0.13;0.13;;;;;;;10.85;100.00;100838.88;5009684;28;20404;-54
2023/02/22 05:07:30;;;;;;;0.30;0.30;;;;;;;10.87;100.00;100829.31;5020270;28;20024;-56
2023/02/22 05:09:55;;;;;;;0.20;0.20;;;;;;;10.83;100.00;100833.06;5014245;28;20042;-53
2023/02/22 05:12:21;;;;;;;0.30;0.30;;;;;;;10.88;100.00;100832.78;5013507;28;20041;-56
2023/02/22 05:14:46;;;;;;;0.40;0.40;;;;;;;10.88;100.00;100832.78;5020121;28;20117;-53
2023/02/22 05:17:12;;;;;;;0.20;0.20;;;;;;;10.92;100.00;100838.25;5009216;28;20072;-50
2023/02/22 05:19:38;;;;;;;0.63;0.40;;;;;;;10.89;100.00;100840.53;5016931;28;20072;-56
2023/02/22 05:22:04;;;;;;;0.20;0.20;;;;;;;10.86;100.00;100827.75;5012840;28;20018;-55
2023/02/22 05:24:31;;;;;;;1.63;0.50;;;;;;;10.86;100.00;100837.72;5022398;28;20463;-55
2023/02/22 05:26:56;;;;;;;0.20;0.20;;;;;;;10.81;100.00;100828.03;5014059;28;20090;-54
2023/02/22 05:29:22;;;;;;;1.13;0.30;;;;;;;10.76;100.00;100830.97;5010971;28;20022;-57
2023/02/22 05:31:47;;;;;;;0.60;0.60;;;;;;;10.80;100.00;100829.16;5007074;28;20030;-52
2023/02/22 05:34:13;;;;;;;0.30;0.30;;;;;;;10.84;100.00;100831.91;5010432;28;20075;-53
2023/02/22 05:36:39;;;;;;;0.55;0.55;;;;;;;10.90;100.00;100843.97;5013033;28;20026;-52
2023/02/22 05:39:04;;;;;;;0.65;0.65;;;;;;;10.85;100.00;100831.59;5019898;28;20037;-52
2023/02/22 05:41:30;;;;;;;0.20;0.20;;;;;;;10.82;100.00;100834.19;5019394;28;20129;-54
2023/02/22 05:43:55;;;;;;;0.60;0.40;;;;;;;10.84;100.00;100832.69;5013018;28;20112;-53
2023/02/22 05:46:21;;;;;;;0.15;0.15;;;;;;;10.88;100.00;100830.88;5012579;28;20029;-54
2023/02/22 05:48:46;;;;;;;0.68;0.52;;;;;;;10.87;100.00;100826.63;5017872;28;20046;-55
2023/02/22 05:51:12;;;;;;;0.43;0.43;;;;;;;10.87;100.00;100832.00;5009640;28;20030;-55
2023/02/22 05:53:38;;;;;;;0.63;0.63;;;;;;;10.74;100.00;100833.25;5019126;28;20092;-55
2023/02/22 05:56:04;;;;;;;0.30;0.30;;;;;;;10.77;100.00;100834.47;5009522;28;20038;-53
2023/02/22 05:58:29;;;;;;;1.83;0.82;;;;;;;10.63;100.00;100831.44;5021284;28;20049;-52
2023/02/22 06:00:55;;;;;;;0.95;0.40;;;;;;;10.74;100.00;100830.56;5015876;28;20033;-53
2023/02/22 06:03:21;;;;;;;0.80;0.80;;;;;;;10.78;100.00;100823.31;5018994;28;20034;-54
2023/02/22 06:05:46;;;;;;;3.47;0.75;;;;;;;10.80;100.00;100825.69;5015414;28;20038;-52
2023/02/22 06:08:12;;;;;;;2.63;1.13;;;;;;;10.79;100.00;100822.22;5010752;28;20365;-54
2023/02/22 06:10:37;;;;;;;0.35;0.35;;;;;;;10.72;100.00;100822.03;5019071;28;20021;-52
2023/02/22 06:13:04;;;;;;;0.30;0.30;;;;;;;10.77;100.00;100831.78;5019534;28;20522;-52
2023/02/22 06:15:30;;;;;;;2.17;0.40;;;;;;;10.80;100.00;100820.31;5025865;28;20090;-57
2023/02/22 06:17:57;;;;;;;0.32;0.32;;;;;;;10.87;100.00;100829.31;5012802;28;20128;-54
2023/02/22 06:20:25;;;;;;;0.65;0.60;;;;;;;10.71;100.00;100833.97;5022359;28;20131;-53
2023/02/22 06:22:52;;;;;;;0.30;0.25;;;;;;;10.76;100.00;100830.97;5015601;28;20041;-55
2023/02/22 06:25:23;;;;;;;0.08;0.08;;;;;;;10.71;100.00;100822.41;5010510;28;20121;-56
2023/02/22 06:27:49;;;;;;;0.93;0.65;;;;;;;10.84;100.00;100830.00;5007288;28;20037;-50
2023/02/22 06:30:17;;;;;;;0.73;0.73;;;;;;;10.84;100.00;100830.00;5008078;28;20033;-53
2023/02/22 06:32:42;;;;;;;0.50;0.50;;;;;;;10.82;100.00;100832.28;5012107;28;20033;-52
2023/02/22 06:35:08;;;;;;;0.60;0.60;;;;;;;10.81;100.00;100833.41;5009514;28;20045;-52
2023/02/22 06:37:34;;;;;;;1.23;0.63;;;;;;;10.77;100.00;100834.47;5010440;28;20099;-57
2023/02/22 06:39:59;;;;;;;0.25;0.25;;;;;;;10.68;100.00;100833.88;5016752;28;20029;-52
2023/02/22 06:42:25;;;;;;;1.10;0.30;;;;;;;10.77;100.00;100835.25;5011907;28;20034;-52
2023/02/22 06:44:50;;;;;;;0.52;0.52;;;;;;;10.76;100.00;100833.66;5011614;28;20096;-53
2023/02/22 06:47:16;;;;;;;0.80;0.80;;;;;;;10.80;100.00;100836.47;4997752;28;20057;-51
2023/02/22 06:49:41;;;;;;;1.98;1.02;;;;;;;10.83;100.00;100836.53;5011959;28;20614;-51
2023/02/22 06:52:08;;;;;;;0.57;0.52;;;;;;;10.76;100.00;100836.38;5011119;28;20065;-57
2023/02/22 06:54:37;;;;;;;0.30;0.30;;;;;;;10.73;100.00;100830.91;5018589;28;20083;-56
2023/02/22 06:57:03;;;;;;;0.35;0.30;;;;;;;10.77;100.00;100829.06;5016949;28;20044;-56
2023/02/22 06:59:28;;;;;;;0.63;0.63;;;;;;;10.72;100.00;100838.19;5017060;28;20022;-57
2023/02/22 07:01:54;;;;;;;0.30;0.30;;;;;;;10.67;100.00;100838.47;5012173;28;20030;-54
2023/02/22 07:04:20;;;;;;;1.10;1.00;;;;;;;10.64;100.00;100841.88;5010507;28;20043;-57
2023/02/22 07:06:47;;;;;;;0.40;0.40;;;;;;;10.59;100.00;100836.75;5016827;28;20116;-56
2023/02/22 07:09:33;;;;;;;0.20;0.20;;;;;;;10.57;100.00;100836.31;5019424;28;20033;-54
2023/02/22 07:11:58;;;;;;;2.85;0.80;;;;;;;10.68;100.00;100834.63;4982461;28;20046;-55
2023/02/22 07:14:24;;;;;;;0.70;0.60;;;;;;;10.73;100.00;100837.09;4984743;28;20046;-51
2023/02/22 07:16:49;;;;;;;0.28;0.28;;;;;;;10.79;100.00;100841.06;4967043;28;20529;-52
2023/02/22 07:19:15;;;;;;;0.50;0.50;;;;;;;10.82;100.00;100851.13;4988499;28;20026;-52
2023/02/22 07:21:40;;;;;;;1.20;0.63;;;;;;;10.85;100.00;100846.97;4982002;28;20035;-50
2023/02/22 07:24:06;;;;;;;0.70;0.40;;;;;;;10.92;100.00;100843.66;4973267;28;20086;-53
2023/02/22 07:26:39;;;;;;;0.40;0.40;;;;;;;10.85;100.00;100849.66;4981069;28;20034;-50
2023/02/22 07:29:04;;;;;;;1.10;0.80;;;;;;;10.82;100.00;100842.25;4982822;28;20082;-51
2023/02/22 07:31:35;;;;;;;0.47;0.47;;;;;;;10.89;100.00;100851.31;4983331;28;20073;-52
2023/02/22 07:34:00;;;;;;;0.32;0.32;;;;;;;10.88;100.00;100849.72;4967128;28;20101;-53
2023/02/22 07:36:26;;;;;;;0.50;0.50;;;;;;;10.84;100.00;100846.19;4958524;28;20035;-55
2023/02/22 07:38:51;;;;;;;0.77;0.60;;;;;;;10.63;100.00;100834.91;4979052;28;20034;-54
2023/02/22 07:41:17;;;;;;;1.50;1.23;;;;;;;10.66;100.00;100836.16;4955520;28;20042;-55
2023/02/22 07:43:42;;;;;;;0.98;0.98;;;;;;;10.58;100.00;100832.50;4978806;28;20047;-52
2023/02/22 07:46:08;;;;;;;0.32;0.32;;;;;;;10.62;100.00;100827.19;4986302;28;20077;-52
2023/02/22 07:48:33;;;;;;;0.20;0.20;;;;;;;10.68;100.00;100829.25;4998277;28;20179;-56
2023/02/22 07:50:59;;;;;;;1.00;0.73;;;;;;;10.81;100.00;100825.34;5026356;28;20034;-54
2023/02/22 07:53:30;;;;;;;0.30;0.30;;;;;;;10.89;100.00;100818.97;5009772;28;20046;-54
2023/02/22 07:56:00;;;;;;;0.40;0.40;;;;;;;10.99;100.00;100822.25;5020411;28;20041;-52
2023/02/22 07:58:28;;;;;;;1.15;0.40;;;;;;;10.94;100.00;100830.63;5018486;28;20033;-52
2023/02/22 08:00:54;;;;;;;0.90;0.63;;;;;;;10.96;100.00;100828.31;5009093;28;20041;-57
2023/02/22 08:03:22;;;;;;;0.30;0.30;;;;;;;10.98;100.00;100832.22;5011863;28;20034;-56
2023/02/22 08:05:54;;;;;;;1.48;0.65;;;;;;;10.97;100.00;100819.13;5012050;28;20124;-52
2023/02/22 08:08:20;;;;;;;0.52;0.52;;;;;;;10.89;100.00;100824.38;5011748;28;20053;-54
2023/02/22 08:10:46;;;;;;;0.25;0.25;;;;;;;10.93;100.00;100827.13;5010288;28;20037;-55
2023/02/22 08:13:12;;;;;;;1.08;0.60;;;;;;;10.91;100.00;100826.69;5014375;28;20444;-55
2023/02/22 08:15:39;;;;;;;0.25;0.25;;;;;;;11.02;100.00;100818.81;5010458;28;20044;-51
2023/02/22 08:18:07;;;;;;;0.47;0.47;;;;;;;11.03;100.00;100812.31;5005805;28;20567;-55
2023/02/22 08:20:33;;;;;;;0.43;0.43;;;;;;;11.08;100.00;100806.63;5014724;28;20058;-55
2023/02/22 08:22:59;;;;;;;0.52;0.50;;;;;;;11.06;100.00;100803.50;5026568;28;20064;-51
2023/02/22 08:25:28;;;;;;;0.43;0.43;;;;;;;11.15;100.00;100812.94;5010336;28;20759;-53
2023/02/22 08:28:00;;;;;;;0.50;0.50;;;;;;;11.21;100.00;100808.84;5021947;28;20152;-57
2023/02/22 08:30:26;;;;;;;0.85;0.85;;;;;;;11.23;100.00;100803.88;5025835;28;20030;-56
2023/02/22 08:32:52;;;;;;;0.55;0.50;;;;;;;11.17;100.00;100801.84;5012200;28;20451;-54
2023/02/22 08:35:19;;;;;;;1.48;0.82;;;;;;;11.17;100.00;100809.94;5022970;28;20113;-54
2023/02/22 08:37:47;;;;;;;1.52;0.82;;;;;;;10.90;100.00;100798.19;5006187;28;20033;-54
2023/02/22 08:40:16;;;;;;;2.40;0.80;;;;;;;10.98;100.00;100802.59;5004857;28;20465;-52
2023/02/22 08:42:42;;;;;;;0.40;0.38;;;;;;;11.09;100.00;100800.88;5028198;28;20118;-55
2023/02/22 08:45:07;;;;;;;0.50;0.40;;;;;;;11.17;100.00;100797.19;5013064;28;20033;-56
2023/02/22 08:47:33;;;;;;;1.17;0.43;;;;;;;11.07;100.00;100802.41;5013788;28;20387;-57
2023/02/22 08:49:58;;;;;;;3.10;1.02;;;;;;;11.10;100.00;100798.97;5024317;28;20029;-53
2023/02/22 08:52:24;;;;;;;0.63;0.30;;;;;;;11.14;100.00;100789.06;5009889;28;20045;-58
2023/02/22 08:54:49;;;;;;;0.57;0.57;;;;;;;11.29;100.00;100791.69;5018737;28;20061;-53
2023/02/22 08:57:15;;;;;;;1.60;0.60;;;;;;;11.17;100.00;100796.44;5013186;28;20475;-54
2023/02/22 08:59:41;;;;;;;0.32;0.32;;;;;;;11.21;100.00;100789.19;5010992;28;20030;-56
2023/02/22 09:02:19;;;;;;;0.73;0.32;;;;;;;11.22;100.00;100798.84;5013472;28;20045;-55
2023/02/22 09:04:45;;;;;;;0.32;0.32;;;;;;;11.40;100.00;100795.34;5012201;28;20054;-56
2023/02/22 09:07:11;;;;;;;0.40;0.40;;;;;;;11.26;100.00;100794.31;5015843;28;20032;-55
2023/02/22 09:09:36;;;;;;;1.33;0.55;;;;;;;11.33;100.00;100792.53;5007724;28;20037;-56
2023/02/22 09:12:02;;;;;;;5.95;0.73;;;;;;;11.07;100.00;100791.63;5004626;28;20037;-58
2023/02/22 09:14:28;;;;;;;0.47;0.47;;;;;;;11.12;100.00;100796.72;5011727;28;20108;-52
2023/02/22 09:16:53;;;;;;;1.00;0.40;;;;;;;11.29;100.00;100802.47;5006070;28;20029;-55
2023/02/22 09:19:19;;;;;;;1.25;0.77;;;;;;;11.15;100.00;100796.78;5015817;28;20051;-58
2023/02/22 09:21:44;;;;;;;0.93;0.88;;;;;;;11.26;100.00;100805.09;5020200;28;20053;-57
2023/02/22 09:24:10;;;;;;;0.70;0.70;;;;;;;11.26;100.00;100800.50;5016911;28;20049;-56
2023/02/22 09:26:38;;;;;;;0.68;0.60;;;;;;;10.93;100.00;100785.94;5009540;28;20034;-55
2023/02/22 09:29:11;;;;;;;0.30;0.30;;;;;;;11.10;100.00;100790.91;5009555;28;20374;-57
2023/02/22 09:31:38;;;;;;;0.30;0.30;;;;;;;11.21;100.00;100797.28;5019121;28;20385;-55
2023/02/22 09:34:12;;;;;;;0.47;0.40;;;;;;;11.28;100.00;100792.03;5008322;28;20376;-57
2023/02/22 09:36:47;;;;;;;1.95;0.77;;;;;;;11.05;100.00;100799.28;5015946;28;20172;-52
2023/02/22 09:39:16;;;;;;;2.20;1.20;;;;;;;10.90;100.00;100790.09;5018142;28;20025;-51
2023/02/22 09:42:02;;;;;;;0.50;0.50;;;;;;;10.98;100.00;100793.72;5016415;28;20088;-55
2023/02/22 09:44:43;;;;;;;1.33;0.95;;;;;;;11.04;100.00;100793.09;5008310;28;20037;-58
2023/02/22 09:47:20;;;;;;;0.50;0.50;;;;;;;11.15;100.00;100788.69;5013719;28;20034;-54
2023/02/22 09:50:15;;;;;;;1.15;0.80;;;;;;;11.09;100.00;100795.50;5029194;28;20353;-57
2023/02/22 09:53:05;;;;;;;0.70;0.30;;;;;;;11.06;100.00;100795.44;5041031;23;20196;-68
2023/02/22 09:55:36;;;;;;;0.45;0.45;;;;;;;11.05;100.00;100789.28;5020911;28;20044;-68
2023/02/22 09:58:09;;;;;;;1.13;1.02;;;;;;;10.78;100.00;100785.63;5023215;28;20504;-68
2023/02/22 10:00:38;;;;;;;0.88;0.60;;;;;;;10.60;100.00;100786.38;5021092;28;20123;-68
2023/02/22 10:03:24;;;;;;;0.43;0.22;;;;;;;10.85;100.00;100782.31;5012810;28;20798;-68
2023/02/22 10:06:11;;;;;;;2.25;0.45;;;;;;;10.96;100.00;100787.91;4998128;28;20033;-67
2023/02/22 10:08:38;;;;;;;3.25;0.95;;;;;;;11.03;100.00;100782.69;4997367;28;20033;-68
2023/02/22 10:11:14;;;;;;;0.77;0.77;;;;;;;10.99;100.00;100773.75;4996870;28;20045;-66
2023/02/22 10:13:47;;;;;;;1.48;0.47;;;;;;;11.04;100.00;100776.94;4997490;28;20033;-66
2023/02/22 10:16:16;;;;;;;1.75;1.02;;;;;;;11.23;100.00;100776.13;4995071;28;20402;-67
2023/02/22 10:19:17;;;;;;;1.08;0.82;;;;;;;11.26;100.00;100772.75;5007546;28;20116;-67
2023/02/22 10:22:03;;;;;;;3.28;0.45;;;;;;;11.53;100.00;100766.31;4988264;28;20107;-66
2023/02/22 10:24:58;;;;;;;1.17;0.60;;;;;;;11.66;100.00;100770.44;5005267;28;20038;-67
2023/02/22 10:27:32;;;;;;;2.55;1.15;;;;;;;11.68;100.00;100763.56;5003873;28;20462;-67
2023/02/22 10:30:04;;;;;;;0.75;0.35;;;;;;;11.66;100.00;100773.13;5004475;28;20421;-68
2023/02/22 10:32:45;;;;;;;1.58;0.75;;;;;;;11.73;100.00;100765.16;5001971;28;20040;-66
2023/02/22 10:35:26;;;;;;;1.42;0.95;;;;;;;11.74;100.00;100758.63;5002228;28;20415;-68
2023/02/22 10:38:01;;;;;;;0.52;0.52;;;;;;;11.82;100.00;100767.63;4997656;28;20038;-67
2023/02/22 10:40:32;;;;;;;0.68;0.63;;;;;;;11.74;100.00;100756.72;5004050;28;20033;-67
2023/02/22 10:43:06;;;;;;;0.30;0.30;;;;;;;12.01;100.00;100765.63;4996700;28;20390;-69
2023/02/22 10:45:35;;;;;;;1.48;0.85;;;;;;;12.02;100.00;100764.50;5001040;28;20508;-68
2023/02/22 10:48:08;;;;;;;1.08;0.63;;;;;;;11.84;100.00;100749.16;5012524;28;20080;-69
2023/02/22 10:50:36;;;;;;;1.58;0.75;;;;;;;11.98;100.00;100757.50;5002973;28;20125;-69
2023/02/22 10:53:02;;;;;;;0.45;0.45;;;;;;;12.07;100.00;100755.31;5004238;28;20056;-66
2023/02/22 10:55:28;;;;;;;0.50;0.50;;;;;;;12.22;100.00;100751.69;4999080;28;20029;-67
2023/02/22 10:58:06;;;;;;;0.70;0.70;;;;;;;12.36;100.00;100757.31;5003909;28;20439;-67
2023/02/22 11:00:38;;;;;;;1.80;0.88;;;;;;;12.56;99.88;100746.00;4997768;28;20073;-69
2023/02/22 11:03:22;;;;;;;1.00;0.63;;;;;;;12.39;99.70;100735.75;5006286;28;20042;-69
2023/02/22 11:05:48;;;;;;;1.13;0.80;;;;;;;12.52;100.00;100742.47;5001227;28;20081;-69
2023/02/22 11:08:19;;;;;;;2.50;0.75;;;;;;;12.85;100.00;100739.06;4994011;28;20042;-68
2023/02/22 11:10:49;;;;;;;0.28;0.28;;;;;;;12.89;99.18;100729.06;4993750;28;20037;-68
2023/02/22 11:13:24;;;;;;;4.45;1.08;;;;;;;13.09;98.21;100730.50;4998158;28;20042;-68
2023/02/22 11:15:50;;;;;;;0.57;0.57;;;;;;;13.24;97.85;100720.63;4985897;28;20570;-67
2023/02/22 11:18:25;;;;;;;0.55;0.55;;;;;;;13.21;96.60;100721.34;4996064;28;20026;-66
2023/02/22 11:20:59;;;;;;;0.55;0.45;;;;;;;13.52;96.45;100716.28;4997849;28;20034;-67
2023/02/22 11:23:25;;;;;;;0.63;0.63;;;;;;;13.71;96.00;100714.47;4989360;28;20080;-68
2023/02/22 11:26:05;;;;;;;1.33;1.23;;;;;;;13.82;94.74;100721.53;4997422;28;20306;-68
2023/02/22 11:28:31;;;;;;;2.70;1.17;;;;;;;13.65;93.23;100708.63;4995947;28;20510;-65